sensor_id;sensor_type;location;lat;lon;timestamp;temperature;humidity
33580;DHT22;19909;43.644;-79.438;2024-02-26T00:01:42;21.50;25.80
33580;DHT22;19909;43.644;-79.438;2024-02-26T00:04:13;21.50;25.80
33580;DHT22;19909;43.644;-79.438;2024-02-26T00:06:40;21.40;25.90
33580;DHT22;19909;43.644;-79.438;2024-02-26T00:09:08;21.30;25.90
33580;DHT22;19909;43.644;-79.438;2024-02-26T00:11:38;21.30;25.90
33580;DHT22;19909;43.644;-79.438;2024-02-26T00:14:05;21.20;25.90
33580;DHT22;19909;43.644;-79.438;2024-02-26T00:16:31;21.20;26.00
33580;DHT22;19909;43.644;-79.438;2024-02-26T00:18:58;21.10;25.90
33580;DHT22;19909;43.644;-79.438;2024-02-26T00:21:24;21.00;25.90
33580;DHT22;19909;43.644;-79.438;2024-02-26T00:23:51;21.00;25.90
33580;DHT22;19909;43.644;-79.438;2024-02-26T00:26:17;21.00;26.00
33580;DHT22;19909;43.644;-79.438;2024-02-26T00:28:43;21.00;26.10
33580;DHT22;19909;43.644;-79.438;2024-02-26T00:31:10;20.90;26.10
33580;DHT22;19909;43.644;-79.438;2024-02-26T00:33:37;20.90;26.00
33580;DHT22;19909;43.644;-79.438;2024-02-26T00:36:04;21.00;26.00
33580;DHT22;19909;43.644;-79.438;2024-02-26T00:38:31;21.10;25.90
33580;DHT22;19909;43.644;-79.438;2024-02-26T00:40:57;21.20;25.80
33580;DHT22;19909;43.644;-79.438;2024-02-26T00:43:23;21.30;25.80
33580;DHT22;19909;43.644;-79.438;2024-02-26T00:45:50;21.50;25.70
33580;DHT22;19909;43.644;-79.438;2024-02-26T00:48:18;21.60;25.60
33580;DHT22;19909;43.644;-79.438;2024-02-26T00:50:44;21.60;25.70
33580;DHT22;19909;43.644;-79.438;2024-02-26T00:53:10;21.60;26.30
33580;DHT22;19909;43.644;-79.438;2024-02-26T00:55:37;21.60;25.80
33580;DHT22;19909;43.644;-79.438;2024-02-26T00:58:03;21.50;25.80
33580;DHT22;19909;43.644;-79.438;2024-02-26T01:00:29;21.50;25.80
33580;DHT22;19909;43.644;-79.438;2024-02-26T01:02:56;21.40;25.90
33580;DHT22;19909;43.644;-79.438;2024-02-26T01:05:22;21.30;25.90
33580;DHT22;19909;43.644;-79.438;2024-02-26T01:07:49;21.30;26.00
33580;DHT22;19909;43.644;-79.438;2024-02-26T01:10:15;21.20;26.00
33580;DHT22;19909;43.644;-79.438;2024-02-26T01:12:42;21.20;26.00
33580;DHT22;19909;43.644;-79.438;2024-02-26T01:15:08;21.10;26.00
33580;DHT22;19909;43.644;-79.438;2024-02-26T01:17:34;21.10;26.00
33580;DHT22;19909;43.644;-79.438;2024-02-26T01:20:01;21.00;26.10
33580;DHT22;19909;43.644;-79.438;2024-02-26T01:22:27;21.00;26.20
33580;DHT22;19909;43.644;-79.438;2024-02-26T01:24:53;21.00;26.20
33580;DHT22;19909;43.644;-79.438;2024-02-26T01:27:20;21.00;26.20
33580;DHT22;19909;43.644;-79.438;2024-02-26T01:29:46;21.10;26.10
33580;DHT22;19909;43.644;-79.438;2024-02-26T01:32:12;21.10;26.00
33580;DHT22;19909;43.644;-79.438;2024-02-26T01:34:38;21.20;25.90
33580;DHT22;19909;43.644;-79.438;2024-02-26T01:37:04;21.30;25.90
33580;DHT22;19909;43.644;-79.438;2024-02-26T01:39:31;21.50;25.90
33580;DHT22;19909;43.644;-79.438;2024-02-26T01:41:57;21.60;25.80
33580;DHT22;19909;43.644;-79.438;2024-02-26T01:44:23;21.60;25.90
33580;DHT22;19909;43.644;-79.438;2024-02-26T01:46:49;21.60;26.00
33580;DHT22;19909;43.644;-79.438;2024-02-26T01:49:16;21.60;26.00
33580;DHT22;19909;43.644;-79.438;2024-02-26T01:51:43;21.50;26.00
33580;DHT22;19909;43.644;-79.438;2024-02-26T01:54:11;21.40;26.00
33580;DHT22;19909;43.644;-79.438;2024-02-26T01:56:38;21.40;26.00
33580;DHT22;19909;43.644;-79.438;2024-02-26T01:59:07;21.40;26.10
33580;DHT22;19909;43.644;-79.438;2024-02-26T02:01:34;21.30;26.10
33580;DHT22;19909;43.644;-79.438;2024-02-26T02:04:01;21.20;26.10
33580;DHT22;19909;43.644;-79.438;2024-02-26T02:06:27;21.20;26.20
33580;DHT22;19909;43.644;-79.438;2024-02-26T02:08:56;21.10;26.10
33580;DHT22;19909;43.644;-79.438;2024-02-26T02:11:23;21.10;26.10
33580;DHT22;19909;43.644;-79.438;2024-02-26T02:13:50;21.00;26.20
33580;DHT22;19909;43.644;-79.438;2024-02-26T02:16:16;21.00;26.30
33580;DHT22;19909;43.644;-79.438;2024-02-26T02:18:42;21.00;26.30
33580;DHT22;19909;43.644;-79.438;2024-02-26T02:21:09;20.90;26.30
33580;DHT22;19909;43.644;-79.438;2024-02-26T02:23:35;21.00;26.40
33580;DHT22;19909;43.644;-79.438;2024-02-26T02:26:02;20.90;26.40
33580;DHT22;19909;43.644;-79.438;2024-02-26T02:28:29;20.90;26.40
33580;DHT22;19909;43.644;-79.438;2024-02-26T02:30:55;20.80;26.40
33580;DHT22;19909;43.644;-79.438;2024-02-26T02:33:22;20.80;26.50
33580;DHT22;19909;43.644;-79.438;2024-02-26T02:35:49;20.70;26.60
33580;DHT22;19909;43.644;-79.438;2024-02-26T02:38:16;20.70;26.70
33580;DHT22;19909;43.644;-79.438;2024-02-26T02:40:43;20.60;26.60
33580;DHT22;19909;43.644;-79.438;2024-02-26T02:43:09;20.60;26.60
33580;DHT22;19909;43.644;-79.438;2024-02-26T02:45:37;20.60;26.60
33580;DHT22;19909;43.644;-79.438;2024-02-26T02:48:04;20.50;26.70
33580;DHT22;19909;43.644;-79.438;2024-02-26T02:50:30;20.50;26.80
33580;DHT22;19909;43.644;-79.438;2024-02-26T02:52:56;20.50;26.80
33580;DHT22;19909;43.644;-79.438;2024-02-26T02:55:22;20.50;26.80
33580;DHT22;19909;43.644;-79.438;2024-02-26T02:57:48;20.40;26.80
33580;DHT22;19909;43.644;-79.438;2024-02-26T03:00:15;20.40;26.80
33580;DHT22;19909;43.644;-79.438;2024-02-26T03:02:41;20.40;26.80
33580;DHT22;19909;43.644;-79.438;2024-02-26T03:05:08;20.30;26.80
33580;DHT22;19909;43.644;-79.438;2024-02-26T03:07:35;20.40;26.90
33580;DHT22;19909;43.644;-79.438;2024-02-26T03:10:01;20.30;26.90
33580;DHT22;19909;43.644;-79.438;2024-02-26T03:12:27;20.30;26.80
33580;DHT22;19909;43.644;-79.438;2024-02-26T03:14:54;20.30;26.80
33580;DHT22;19909;43.644;-79.438;2024-02-26T03:17:21;20.30;26.90
33580;DHT22;19909;43.644;-79.438;2024-02-26T03:19:47;20.40;27.00
33580;DHT22;19909;43.644;-79.438;2024-02-26T03:22:19;20.40;26.80
33580;DHT22;19909;43.644;-79.438;2024-02-26T03:24:46;20.50;26.80
33580;DHT22;19909;43.644;-79.438;2024-02-26T03:27:13;20.60;26.70
33580;DHT22;19909;43.644;-79.438;2024-02-26T03:29:40;20.70;26.80
33580;DHT22;19909;43.644;-79.438;2024-02-26T03:32:07;20.70;26.80
33580;DHT22;19909;43.644;-79.438;2024-02-26T03:34:34;20.70;26.90
33580;DHT22;19909;43.644;-79.438;2024-02-26T03:37:01;20.60;26.80
33580;DHT22;19909;43.644;-79.438;2024-02-26T03:39:27;20.60;26.80
33580;DHT22;19909;43.644;-79.438;2024-02-26T03:41:53;20.60;26.80
33580;DHT22;19909;43.644;-79.438;2024-02-26T03:44:20;20.70;26.80
33580;DHT22;19909;43.644;-79.438;2024-02-26T03:46:46;20.70;26.70
33580;DHT22;19909;43.644;-79.438;2024-02-26T03:49:13;20.90;26.70
33580;DHT22;19909;43.644;-79.438;2024-02-26T03:51:39;20.90;26.60
33580;DHT22;19909;43.644;-79.438;2024-02-26T03:54:05;20.90;26.70
33580;DHT22;19909;43.644;-79.438;2024-02-26T03:56:31;20.90;26.80
33580;DHT22;19909;43.644;-79.438;2024-02-26T03:58:58;20.80;26.80
33580;DHT22;19909;43.644;-79.438;2024-02-26T04:01:25;20.80;26.80
33580;DHT22;19909;43.644;-79.438;2024-02-26T04:03:51;20.90;26.80
33580;DHT22;19909;43.644;-79.438;2024-02-26T04:06:18;20.80;26.80
33580;DHT22;19909;43.644;-79.438;2024-02-26T04:08:48;20.90;26.70
33580;DHT22;19909;43.644;-79.438;2024-02-26T04:11:14;21.00;26.60
33580;DHT22;19909;43.644;-79.438;2024-02-26T04:13:44;21.00;26.60
33580;DHT22;19909;43.644;-79.438;2024-02-26T04:16:16;21.10;26.70
33580;DHT22;19909;43.644;-79.438;2024-02-26T04:18:44;21.10;26.80
33580;DHT22;19909;43.644;-79.438;2024-02-26T04:21:10;21.00;26.80
33580;DHT22;19909;43.644;-79.438;2024-02-26T04:23:36;20.90;26.90
33580;DHT22;19909;43.644;-79.438;2024-02-26T04:26:03;21.00;26.90
33580;DHT22;19909;43.644;-79.438;2024-02-26T04:28:29;20.90;26.80
33580;DHT22;19909;43.644;-79.438;2024-02-26T04:30:56;21.00;26.80
33580;DHT22;19909;43.644;-79.438;2024-02-26T04:33:23;21.00;26.70
33580;DHT22;19909;43.644;-79.438;2024-02-26T04:35:49;21.10;26.60
33580;DHT22;19909;43.644;-79.438;2024-02-26T04:38:15;21.10;26.60
33580;DHT22;19909;43.644;-79.438;2024-02-26T04:40:42;21.20;26.80
33580;DHT22;19909;43.644;-79.438;2024-02-26T04:43:08;21.20;26.80
33580;DHT22;19909;43.644;-79.438;2024-02-26T04:45:34;21.10;26.80
33580;DHT22;19909;43.644;-79.438;2024-02-26T04:48:01;21.10;26.80
33580;DHT22;19909;43.644;-79.438;2024-02-26T04:50:29;21.10;26.80
33580;DHT22;19909;43.644;-79.438;2024-02-26T04:52:58;21.20;26.70
33580;DHT22;19909;43.644;-79.438;2024-02-26T04:55:25;21.20;26.70
33580;DHT22;19909;43.644;-79.438;2024-02-26T04:57:51;21.30;26.70
33580;DHT22;19909;43.644;-79.438;2024-02-26T05:00:17;21.30;26.70
33580;DHT22;19909;43.644;-79.438;2024-02-26T05:02:43;21.30;26.80
33580;DHT22;19909;43.644;-79.438;2024-02-26T05:05:10;21.20;26.80
33580;DHT22;19909;43.644;-79.438;2024-02-26T05:07:42;21.20;26.90
33580;DHT22;19909;43.644;-79.438;2024-02-26T05:10:09;21.20;26.80
33580;DHT22;19909;43.644;-79.438;2024-02-26T05:12:36;21.20;26.80
33580;DHT22;19909;43.644;-79.438;2024-02-26T05:15:02;21.30;26.70
33580;DHT22;19909;43.644;-79.438;2024-02-26T05:17:29;21.30;26.70
33580;DHT22;19909;43.644;-79.438;2024-02-26T05:19:55;21.40;26.70
33580;DHT22;19909;43.644;-79.438;2024-02-26T05:22:21;21.40;26.70
33580;DHT22;19909;43.644;-79.438;2024-02-26T05:24:47;21.40;26.80
33580;DHT22;19909;43.644;-79.438;2024-02-26T05:27:14;21.40;26.80
33580;DHT22;19909;43.644;-79.438;2024-02-26T05:29:40;21.30;26.80
33580;DHT22;19909;43.644;-79.438;2024-02-26T05:32:07;21.30;26.90
33580;DHT22;19909;43.644;-79.438;2024-02-26T05:34:33;21.20;26.80
33580;DHT22;19909;43.644;-79.438;2024-02-26T05:37:00;21.30;27.30
33580;DHT22;19909;43.644;-79.438;2024-02-26T05:39:26;21.30;26.80
33580;DHT22;19909;43.644;-79.438;2024-02-26T05:41:52;21.40;26.70
33580;DHT22;19909;43.644;-79.438;2024-02-26T05:44:22;21.50;26.70
33580;DHT22;19909;43.644;-79.438;2024-02-26T05:46:48;21.50;26.60
33580;DHT22;19909;43.644;-79.438;2024-02-26T05:49:15;21.50;26.70
33580;DHT22;19909;43.644;-79.438;2024-02-26T05:51:41;21.50;26.90
33580;DHT22;19909;43.644;-79.438;2024-02-26T05:54:07;21.50;26.80
33580;DHT22;19909;43.644;-79.438;2024-02-26T05:56:34;21.40;26.90
33580;DHT22;19909;43.644;-79.438;2024-02-26T05:59:00;21.40;27.00
33580;DHT22;19909;43.644;-79.438;2024-02-26T06:01:26;21.40;26.90
33580;DHT22;19909;43.644;-79.438;2024-02-26T06:03:52;21.40;27.30
33580;DHT22;19909;43.644;-79.438;2024-02-26T06:06:19;21.50;26.80
33580;DHT22;19909;43.644;-79.438;2024-02-26T06:08:48;21.50;26.70
33580;DHT22;19909;43.644;-79.438;2024-02-26T06:11:15;21.60;26.70
33580;DHT22;19909;43.644;-79.438;2024-02-26T06:13:41;21.50;26.80
33580;DHT22;19909;43.644;-79.438;2024-02-26T06:16:08;21.50;26.90
33580;DHT22;19909;43.644;-79.438;2024-02-26T06:18:35;21.50;26.90
33580;DHT22;19909;43.644;-79.438;2024-02-26T06:21:01;21.40;26.90
33580;DHT22;19909;43.644;-79.438;2024-02-26T06:23:29;21.40;26.90
33580;DHT22;19909;43.644;-79.438;2024-02-26T06:25:55;21.40;26.90
33580;DHT22;19909;43.644;-79.438;2024-02-26T06:28:21;21.50;26.80
33580;DHT22;19909;43.644;-79.438;2024-02-26T06:30:48;21.50;26.70
33580;DHT22;19909;43.644;-79.438;2024-02-26T06:33:16;21.60;26.80
33580;DHT22;19909;43.644;-79.438;2024-02-26T06:35:42;21.60;26.70
33580;DHT22;19909;43.644;-79.438;2024-02-26T06:38:10;21.60;26.80
33580;DHT22;19909;43.644;-79.438;2024-02-26T06:40:38;21.60;26.80
33580;DHT22;19909;43.644;-79.438;2024-02-26T06:43:05;21.50;26.90
33580;DHT22;19909;43.644;-79.438;2024-02-26T06:45:31;21.50;27.00
33580;DHT22;19909;43.644;-79.438;2024-02-26T06:47:58;21.40;26.90
33580;DHT22;19909;43.644;-79.438;2024-02-26T06:50:25;21.40;26.80
33580;DHT22;19909;43.644;-79.438;2024-02-26T06:52:51;21.50;26.80
33580;DHT22;19909;43.644;-79.438;2024-02-26T06:55:17;21.60;26.70
33580;DHT22;19909;43.644;-79.438;2024-02-26T06:57:43;21.70;26.70
33580;DHT22;19909;43.644;-79.438;2024-02-26T07:00:10;21.70;26.70
33580;DHT22;19909;43.644;-79.438;2024-02-26T07:02:40;21.70;26.80
33580;DHT22;19909;43.644;-79.438;2024-02-26T07:05:07;21.70;26.80
33580;DHT22;19909;43.644;-79.438;2024-02-26T07:07:33;21.60;26.90
33580;DHT22;19909;43.644;-79.438;2024-02-26T07:09:59;21.60;26.90
33580;DHT22;19909;43.644;-79.438;2024-02-26T07:12:30;21.50;26.90
33580;DHT22;19909;43.644;-79.438;2024-02-26T07:14:57;21.50;26.90
33580;DHT22;19909;43.644;-79.438;2024-02-26T07:17:24;21.60;26.90
33580;DHT22;19909;43.644;-79.438;2024-02-26T07:19:50;21.60;26.80
33580;DHT22;19909;43.644;-79.438;2024-02-26T07:22:17;21.70;26.70
33580;DHT22;19909;43.644;-79.438;2024-02-26T07:24:43;21.70;27.20
33580;DHT22;19909;43.644;-79.438;2024-02-26T07:27:10;21.80;26.70
33580;DHT22;19909;43.644;-79.438;2024-02-26T07:29:36;21.80;26.80
33580;DHT22;19909;43.644;-79.438;2024-02-26T07:32:02;21.70;26.80
33580;DHT22;19909;43.644;-79.438;2024-02-26T07:34:28;21.70;26.80
33580;DHT22;19909;43.644;-79.438;2024-02-26T07:36:56;21.60;26.90
33580;DHT22;19909;43.644;-79.438;2024-02-26T07:39:22;21.60;26.90
33580;DHT22;19909;43.644;-79.438;2024-02-26T07:41:49;21.50;27.00
33580;DHT22;19909;43.644;-79.438;2024-02-26T07:44:17;21.50;26.80
33580;DHT22;19909;43.644;-79.438;2024-02-26T07:46:44;21.60;26.80
33580;DHT22;19909;43.644;-79.438;2024-02-26T07:49:10;21.70;27.20
33580;DHT22;19909;43.644;-79.438;2024-02-26T07:51:37;21.80;26.70
33580;DHT22;19909;43.644;-79.438;2024-02-26T07:54:04;21.80;26.70
33580;DHT22;19909;43.644;-79.438;2024-02-26T07:56:31;21.90;26.70
33580;DHT22;19909;43.644;-79.438;2024-02-26T07:58:57;21.90;26.70
33580;DHT22;19909;43.644;-79.438;2024-02-26T08:01:23;21.80;26.70
33580;DHT22;19909;43.644;-79.438;2024-02-26T08:03:52;21.80;26.80
33580;DHT22;19909;43.644;-79.438;2024-02-26T08:06:19;21.70;26.80
33580;DHT22;19909;43.644;-79.438;2024-02-26T08:08:45;21.60;26.90
33580;DHT22;19909;43.644;-79.438;2024-02-26T08:11:12;21.60;26.90
33580;DHT22;19909;43.644;-79.438;2024-02-26T08:13:40;21.60;26.90
33580;DHT22;19909;43.644;-79.438;2024-02-26T08:16:07;21.60;26.80
33580;DHT22;19909;43.644;-79.438;2024-02-26T08:18:33;21.70;26.70
33580;DHT22;19909;43.644;-79.438;2024-02-26T08:20:59;21.80;26.70
33580;DHT22;19909;43.644;-79.438;2024-02-26T08:23:26;21.90;26.70
33580;DHT22;19909;43.644;-79.438;2024-02-26T08:25:52;21.90;26.70
33580;DHT22;19909;43.644;-79.438;2024-02-26T08:28:18;21.90;26.70
33580;DHT22;19909;43.644;-79.438;2024-02-26T08:30:45;21.90;26.80
33580;DHT22;19909;43.644;-79.438;2024-02-26T08:33:11;21.80;26.70
33580;DHT22;19909;43.644;-79.438;2024-02-26T08:35:39;21.70;26.80
33580;DHT22;19909;43.644;-79.438;2024-02-26T08:38:05;21.70;26.90
33580;DHT22;19909;43.644;-79.438;2024-02-26T08:40:31;21.60;26.90
33580;DHT22;19909;43.644;-79.438;2024-02-26T08:42:57;21.60;26.90
33580;DHT22;19909;43.644;-79.438;2024-02-26T08:45:24;21.60;26.90
33580;DHT22;19909;43.644;-79.438;2024-02-26T08:47:52;21.70;26.80
33580;DHT22;19909;43.644;-79.438;2024-02-26T08:50:18;21.70;26.70
33580;DHT22;19909;43.644;-79.438;2024-02-26T08:52:44;21.80;26.70
33580;DHT22;19909;43.644;-79.438;2024-02-26T08:55:14;22.00;26.70
33580;DHT22;19909;43.644;-79.438;2024-02-26T08:57:41;21.90;26.70
33580;DHT22;19909;43.644;-79.438;2024-02-26T09:00:07;21.90;26.80
33580;DHT22;19909;43.644;-79.438;2024-02-26T09:02:34;21.90;26.80
33580;DHT22;19909;43.644;-79.438;2024-02-26T09:05:00;21.80;26.80
33580;DHT22;19909;43.644;-79.438;2024-02-26T09:07:26;21.70;26.80
33580;DHT22;19909;43.644;-79.438;2024-02-26T09:09:53;21.60;26.90
33580;DHT22;19909;43.644;-79.438;2024-02-26T09:12:20;21.60;26.90
33580;DHT22;19909;43.644;-79.438;2024-02-26T09:14:46;21.60;26.90
33580;DHT22;19909;43.644;-79.438;2024-02-26T09:17:12;21.70;26.80
33580;DHT22;19909;43.644;-79.438;2024-02-26T09:19:39;21.70;26.70
33580;DHT22;19909;43.644;-79.438;2024-02-26T09:22:06;21.90;26.70
33580;DHT22;19909;43.644;-79.438;2024-02-26T09:24:33;21.90;26.60
33580;DHT22;19909;43.644;-79.438;2024-02-26T09:26:59;22.00;26.60
33580;DHT22;19909;43.644;-79.438;2024-02-26T09:29:25;22.10;26.70
33580;DHT22;19909;43.644;-79.438;2024-02-26T09:31:52;22.00;26.70
33580;DHT22;19909;43.644;-79.438;2024-02-26T09:34:18;21.90;26.70
33580;DHT22;19909;43.644;-79.438;2024-02-26T09:36:44;21.80;26.70
33580;DHT22;19909;43.644;-79.438;2024-02-26T09:39:10;21.80;26.70
33580;DHT22;19909;43.644;-79.438;2024-02-26T09:41:37;21.70;26.80
33580;DHT22;19909;43.644;-79.438;2024-02-26T09:44:05;21.70;26.90
33580;DHT22;19909;43.644;-79.438;2024-02-26T09:46:31;21.70;26.80
33580;DHT22;19909;43.644;-79.438;2024-02-26T09:48:58;21.70;26.70
33580;DHT22;19909;43.644;-79.438;2024-02-26T09:51:25;21.80;26.70
33580;DHT22;19909;43.644;-79.438;2024-02-26T09:53:52;21.90;26.60
33580;DHT22;19909;43.644;-79.438;2024-02-26T09:56:19;22.00;26.60
33580;DHT22;19909;43.644;-79.438;2024-02-26T09:58:46;22.00;26.60
33580;DHT22;19909;43.644;-79.438;2024-02-26T10:01:18;22.00;26.70
33580;DHT22;19909;43.644;-79.438;2024-02-26T10:03:52;21.90;26.70
33580;DHT22;19909;43.644;-79.438;2024-02-26T10:06:21;21.80;26.70
33580;DHT22;19909;43.644;-79.438;2024-02-26T10:08:47;21.80;26.80
33580;DHT22;19909;43.644;-79.438;2024-02-26T10:11:15;21.70;26.90
33580;DHT22;19909;43.644;-79.438;2024-02-26T10:13:42;21.70;26.90
33580;DHT22;19909;43.644;-79.438;2024-02-26T10:16:08;21.70;26.80
33580;DHT22;19909;43.644;-79.438;2024-02-26T10:18:52;21.70;26.70
33580;DHT22;19909;43.644;-79.438;2024-02-26T10:21:20;21.80;26.60
33580;DHT22;19909;43.644;-79.438;2024-02-26T10:23:47;21.90;26.60
33580;DHT22;19909;43.644;-79.438;2024-02-26T10:26:15;22.00;26.60
33580;DHT22;19909;43.644;-79.438;2024-02-26T10:28:42;22.10;26.50
33580;DHT22;19909;43.644;-79.438;2024-02-26T10:31:09;22.10;26.60
33580;DHT22;19909;43.644;-79.438;2024-02-26T10:33:37;22.10;26.60
33580;DHT22;19909;43.644;-79.438;2024-02-26T10:36:05;22.00;26.60
33580;DHT22;19909;43.644;-79.438;2024-02-26T10:38:32;21.90;26.70
33580;DHT22;19909;43.644;-79.438;2024-02-26T10:40:59;21.80;26.70
33580;DHT22;19909;43.644;-79.438;2024-02-26T10:43:28;21.80;26.80
33580;DHT22;19909;43.644;-79.438;2024-02-26T10:45:57;21.70;26.80
33580;DHT22;19909;43.644;-79.438;2024-02-26T10:48:23;21.70;26.80
33580;DHT22;19909;43.644;-79.438;2024-02-26T10:50:50;21.80;26.70
33580;DHT22;19909;43.644;-79.438;2024-02-26T10:53:23;21.80;26.60
33580;DHT22;19909;43.644;-79.438;2024-02-26T10:56:03;21.90;26.50
33580;DHT22;19909;43.644;-79.438;2024-02-26T10:58:32;22.00;26.50
33580;DHT22;19909;43.644;-79.438;2024-02-26T11:00:59;22.10;26.60
33580;DHT22;19909;43.644;-79.438;2024-02-26T11:03:27;22.10;26.60
33580;DHT22;19909;43.644;-79.438;2024-02-26T11:05:54;22.00;26.60
33580;DHT22;19909;43.644;-79.438;2024-02-26T11:08:22;21.90;26.60
33580;DHT22;19909;43.644;-79.438;2024-02-26T11:10:52;21.90;26.70
33580;DHT22;19909;43.644;-79.438;2024-02-26T11:13:19;21.80;26.70
33580;DHT22;19909;43.644;-79.438;2024-02-26T11:15:47;21.70;26.70
33580;DHT22;19909;43.644;-79.438;2024-02-26T11:18:19;21.70;26.70
33580;DHT22;19909;43.644;-79.438;2024-02-26T11:20:48;21.80;26.70
33580;DHT22;19909;43.644;-79.438;2024-02-26T11:23:15;21.80;26.60
33580;DHT22;19909;43.644;-79.438;2024-02-26T11:25:42;21.90;26.50
33580;DHT22;19909;43.644;-79.438;2024-02-26T11:28:12;22.00;26.50
33580;DHT22;19909;43.644;-79.438;2024-02-26T11:30:43;22.10;26.50
33580;DHT22;19909;43.644;-79.438;2024-02-26T11:33:11;22.20;26.40
33580;DHT22;19909;43.644;-79.438;2024-02-26T11:35:38;22.20;26.50
33580;DHT22;19909;43.644;-79.438;2024-02-26T11:38:04;22.20;26.50
33580;DHT22;19909;43.644;-79.438;2024-02-26T11:40:37;22.10;26.50
33580;DHT22;19909;43.644;-79.438;2024-02-26T11:43:08;22.00;26.50
33580;DHT22;19909;43.644;-79.438;2024-02-26T11:48:29;21.90;26.70
33580;DHT22;19909;43.644;-79.438;2024-02-26T11:50:58;21.80;26.70
33580;DHT22;19909;43.644;-79.438;2024-02-26T11:53:27;21.80;26.80
33580;DHT22;19909;43.644;-79.438;2024-02-26T11:59:10;21.80;26.70
33580;DHT22;19909;43.644;-79.438;2024-02-26T12:06:45;22.10;26.50
33580;DHT22;19909;43.644;-79.438;2024-02-26T12:09:12;22.20;26.50
33580;DHT22;19909;43.644;-79.438;2024-02-26T12:11:40;22.20;26.40
33580;DHT22;19909;43.644;-79.438;2024-02-26T12:14:10;22.20;26.50
33580;DHT22;19909;43.644;-79.438;2024-02-26T12:16:38;22.20;26.40
33580;DHT22;19909;43.644;-79.438;2024-02-26T12:19:06;22.10;26.40
33580;DHT22;19909;43.644;-79.438;2024-02-26T12:21:37;22.00;26.50
33580;DHT22;19909;43.644;-79.438;2024-02-26T12:24:14;21.90;26.50
33580;DHT22;19909;43.644;-79.438;2024-02-26T12:26:42;21.90;26.50
33580;DHT22;19909;43.644;-79.438;2024-02-26T12:29:08;21.90;26.60
33580;DHT22;19909;43.644;-79.438;2024-02-26T12:31:37;21.80;26.50
33580;DHT22;19909;43.644;-79.438;2024-02-26T12:34:04;21.80;26.40
33580;DHT22;19909;43.644;-79.438;2024-02-26T12:36:31;21.90;26.40
33580;DHT22;19909;43.644;-79.438;2024-02-26T12:38:58;22.00;26.30
33580;DHT22;19909;43.644;-79.438;2024-02-26T12:41:26;22.10;26.40
33580;DHT22;19909;43.644;-79.438;2024-02-26T12:43:53;22.20;26.30
33580;DHT22;19909;43.644;-79.438;2024-02-26T12:46:20;22.20;26.30
33580;DHT22;19909;43.644;-79.438;2024-02-26T12:48:47;22.20;26.30
33580;DHT22;19909;43.644;-79.438;2024-02-26T12:51:14;22.20;26.80
33580;DHT22;19909;43.644;-79.438;2024-02-26T12:53:41;22.10;26.40
33580;DHT22;19909;43.644;-79.438;2024-02-26T12:56:09;22.00;26.50
33580;DHT22;19909;43.644;-79.438;2024-02-26T12:58:38;21.90;26.50
33580;DHT22;19909;43.644;-79.438;2024-02-26T13:01:06;21.90;26.50
33580;DHT22;19909;43.644;-79.438;2024-02-26T13:03:34;21.80;26.60
33580;DHT22;19909;43.644;-79.438;2024-02-26T13:06:02;21.80;26.70
33580;DHT22;19909;43.644;-79.438;2024-02-26T13:08:29;21.70;26.70
33580;DHT22;19909;43.644;-79.438;2024-02-26T13:10:55;21.60;26.70
33580;DHT22;19909;43.644;-79.438;2024-02-26T13:13:23;21.60;26.80
33580;DHT22;19909;43.644;-79.438;2024-02-26T13:15:49;21.60;26.80
33580;DHT22;19909;43.644;-79.438;2024-02-26T13:18:16;21.60;26.80
33580;DHT22;19909;43.644;-79.438;2024-02-26T13:20:42;21.70;26.70
33580;DHT22;19909;43.644;-79.438;2024-02-26T13:23:12;21.70;26.60
33580;DHT22;19909;43.644;-79.438;2024-02-26T13:25:38;21.80;26.60
33580;DHT22;19909;43.644;-79.438;2024-02-26T13:28:18;21.90;26.50
33580;DHT22;19909;43.644;-79.438;2024-02-26T13:30:56;22.00;26.60
33580;DHT22;19909;43.644;-79.438;2024-02-26T13:33:23;22.10;26.60
33580;DHT22;19909;43.644;-79.438;2024-02-26T13:35:50;22.10;26.70
33580;DHT22;19909;43.644;-79.438;2024-02-26T13:38:17;22.10;26.70
33580;DHT22;19909;43.644;-79.438;2024-02-26T13:40:44;22.00;26.70
33580;DHT22;19909;43.644;-79.438;2024-02-26T13:43:11;21.90;26.80
33580;DHT22;19909;43.644;-79.438;2024-02-26T13:45:38;21.80;26.80
33580;DHT22;19909;43.644;-79.438;2024-02-26T13:48:07;21.80;26.80
33580;DHT22;19909;43.644;-79.438;2024-02-26T13:50:33;21.70;26.90
33580;DHT22;19909;43.644;-79.438;2024-02-26T13:53:00;21.70;26.90
33580;DHT22;19909;43.644;-79.438;2024-02-26T13:55:26;21.60;26.90
33580;DHT22;19909;43.644;-79.438;2024-02-26T13:57:56;21.60;27.00
33580;DHT22;19909;43.644;-79.438;2024-02-26T14:00:23;21.50;27.00
33580;DHT22;19909;43.644;-79.438;2024-02-26T14:02:50;21.40;27.00
33580;DHT22;19909;43.644;-79.438;2024-02-26T14:05:17;21.40;27.10
33580;DHT22;19909;43.644;-79.438;2024-02-26T14:07:43;21.40;27.00
33580;DHT22;19909;43.644;-79.438;2024-02-26T14:10:13;21.40;27.00
33580;DHT22;19909;43.644;-79.438;2024-02-26T14:12:39;21.50;27.00
33580;DHT22;19909;43.644;-79.438;2024-02-26T14:15:07;21.50;26.90
33580;DHT22;19909;43.644;-79.438;2024-02-26T14:17:35;21.60;26.80
33580;DHT22;19909;43.644;-79.438;2024-02-26T14:20:02;21.80;26.80
33580;DHT22;19909;43.644;-79.438;2024-02-26T14:22:29;21.90;26.70
33580;DHT22;19909;43.644;-79.438;2024-02-26T14:24:57;22.00;26.70
33580;DHT22;19909;43.644;-79.438;2024-02-26T14:27:23;22.10;26.80
33580;DHT22;19909;43.644;-79.438;2024-02-26T14:29:50;22.10;26.90
33580;DHT22;19909;43.644;-79.438;2024-02-26T14:32:16;22.00;26.80
33580;DHT22;19909;43.644;-79.438;2024-02-26T14:34:44;21.90;26.90
33580;DHT22;19909;43.644;-79.438;2024-02-26T14:37:10;21.90;26.90
33580;DHT22;19909;43.644;-79.438;2024-02-26T14:39:38;21.80;27.00
33580;DHT22;19909;43.644;-79.438;2024-02-26T14:42:04;21.70;27.00
33580;DHT22;19909;43.644;-79.438;2024-02-26T14:44:31;21.70;27.00
33580;DHT22;19909;43.644;-79.438;2024-02-26T14:46:58;21.60;27.50
33580;DHT22;19909;43.644;-79.438;2024-02-26T14:49:24;21.60;27.20
33580;DHT22;19909;43.644;-79.438;2024-02-26T14:51:50;21.50;27.10
33580;DHT22;19909;43.644;-79.438;2024-02-26T14:54:16;21.50;27.10
33580;DHT22;19909;43.644;-79.438;2024-02-26T14:56:43;21.40;27.10
33580;DHT22;19909;43.644;-79.438;2024-02-26T14:59:09;21.40;27.10
33580;DHT22;19909;43.644;-79.438;2024-02-26T15:01:35;21.50;27.00
33580;DHT22;19909;43.644;-79.438;2024-02-26T15:04:02;21.50;26.90
33580;DHT22;19909;43.644;-79.438;2024-02-26T15:06:29;21.60;26.80
33580;DHT22;19909;43.644;-79.438;2024-02-26T15:08:56;21.70;26.80
33580;DHT22;19909;43.644;-79.438;2024-02-26T15:11:22;21.90;26.80
33580;DHT22;19909;43.644;-79.438;2024-02-26T15:13:48;22.00;26.70